createdAt,value
2022-11-24T00:01:33.269Z,6.86
2022-11-24T00:04:03.336Z,6.99
2022-11-24T00:06:33.887Z,6.92
2022-11-24T00:09:03.520Z,6.89
2022-11-24T00:11:33.475Z,7.02
2022-11-24T00:14:04.334Z,6.95
2022-11-24T00:16:35.805Z,6.98
2022-11-24T00:19:09.316Z,6.99
2022-11-24T00:21:41.774Z,6.88
2022-11-24T00:24:11.974Z,6.89
2022-11-24T00:26:40.408Z,6.82
2022-11-24T00:29:12.454Z,6.78
2022-11-24T00:31:42.953Z,6.79
2022-11-24T00:34:15.732Z,6.74
2022-11-24T00:36:44.458Z,6.87
2022-11-24T00:39:15.637Z,6.94
2022-11-24T00:41:44.765Z,6.91
2022-11-24T00:44:15.266Z,6.93
2022-11-24T00:46:44.187Z,6.92
2022-11-24T00:49:12.787Z,6.88
2022-11-24T00:51:42.384Z,6.92
2022-11-24T00:54:11.225Z,7.01
2022-11-24T00:56:39.862Z,7.05
2022-11-24T00:59:08.693Z,7.04
2022-11-24T01:01:39.269Z,7.02
2022-11-24T01:04:09.800Z,6.96
2022-11-24T01:06:39.402Z,6.90
2022-11-24T01:09:07.980Z,6.92
2022-11-24T01:11:53.574Z,6.91
2022-11-24T01:14:25.065Z,6.93
2022-11-24T01:16:55.897Z,6.67
2022-11-24T01:19:25.335Z,6.71
2022-11-24T01:21:54.358Z,6.60
2022-11-24T01:24:23.008Z,6.71
2022-11-24T01:26:56.239Z,6.68
2022-11-24T01:29:26.557Z,6.60
2022-11-24T01:31:56.721Z,6.69
2022-11-24T01:34:25.615Z,6.88
2022-11-24T01:36:54.283Z,6.83
2022-11-24T01:39:23.785Z,6.82
2022-11-24T01:41:52.985Z,6.80
2022-11-24T01:44:24.223Z,6.80
2022-11-24T01:47:00.514Z,6.63
2022-11-24T01:49:38.063Z,6.78
2022-11-24T01:52:15.806Z,6.80
2022-11-24T01:54:48.642Z,6.78
2022-11-24T01:57:23.374Z,6.66
2022-11-24T01:59:56.892Z,6.75
2022-11-24T02:02:29.871Z,6.78
2022-11-24T02:05:04.173Z,6.82
2022-11-24T02:07:33.344Z,6.83
2022-11-24T02:10:06.311Z,6.92
2022-11-24T02:12:35.124Z,6.65
2022-11-24T02:15:03.569Z,6.47
2022-11-24T02:17:33.698Z,6.60
2022-11-24T02:20:05.092Z,6.43
2022-11-24T02:22:39.453Z,6.55
2022-11-24T02:25:18.525Z,6.63
2022-11-24T02:27:53.729Z,6.67
2022-11-24T02:30:22.931Z,6.84
2022-11-24T02:32:52.983Z,6.84
2022-11-24T02:35:22.453Z,6.77
2022-11-24T02:37:50.885Z,6.87
2022-11-24T02:40:25.645Z,6.87
2022-11-24T02:43:00.023Z,6.82
2022-11-24T02:45:29.511Z,6.79
2022-11-24T02:47:57.683Z,6.76
2022-11-24T02:50:26.311Z,6.59
2022-11-24T02:52:55.144Z,6.64
2022-11-24T02:55:23.784Z,6.54
2022-11-24T02:57:57.544Z,6.57
2022-11-24T03:00:37.650Z,6.70
2022-11-24T03:03:06.271Z,6.58
2022-11-24T03:05:35.158Z,6.67
2022-11-24T03:08:03.843Z,6.64
2022-11-24T03:10:32.435Z,6.59
2022-11-24T03:13:01.254Z,6.84
2022-11-24T03:15:31.475Z,6.89
2022-11-24T03:17:59.964Z,6.76
2022-11-24T03:20:29.278Z,6.80
2022-11-24T03:22:58.860Z,6.80
2022-11-24T03:25:27.324Z,6.64
2022-11-24T03:27:57.639Z,6.78
2022-11-24T03:30:26.403Z,6.77
2022-11-24T03:32:56.542Z,6.83
2022-11-24T03:35:26.126Z,6.77
2022-11-24T03:37:54.552Z,6.76
2022-11-24T03:40:23.040Z,6.82
2022-11-24T03:42:51.536Z,6.83
2022-11-24T03:45:44.817Z,6.76
2022-11-24T03:48:11.912Z,6.70
2022-11-24T03:50:40.372Z,6.73
2022-11-24T03:53:09.072Z,6.59
2022-11-24T03:55:38.170Z,6.38
2022-11-24T03:58:06.670Z,6.71
2022-11-24T04:00:36.373Z,6.54
2022-11-24T04:03:05.052Z,6.56
2022-11-24T04:05:37.941Z,6.57
2022-11-24T04:08:07.221Z,6.64
2022-11-24T04:10:37.619Z,6.53
2022-11-24T04:13:06.125Z,6.51
2022-11-24T04:15:34.415Z,6.42
2022-11-24T04:18:04.372Z,6.32
2022-11-24T04:20:35.215Z,6.56
2022-11-24T04:23:04.105Z,6.70
2022-11-24T04:25:34.279Z,6.58
2022-11-24T04:28:04.060Z,6.52
2022-11-24T04:30:32.764Z,6.52
2022-11-24T04:33:01.559Z,6.49
2022-11-24T04:35:30.543Z,6.42
2022-11-24T04:38:03.883Z,6.28
2022-11-24T04:40:32.366Z,6.35
2022-11-24T04:43:00.841Z,6.38
2022-11-24T04:45:29.631Z,6.50
2022-11-24T04:47:58.171Z,6.59
2022-11-24T04:50:27.065Z,6.54
2022-11-24T04:52:55.678Z,6.47
2022-11-24T04:55:25.842Z,6.58
2022-11-24T04:57:54.209Z,6.52
2022-11-24T05:00:22.897Z,6.56
2022-11-24T05:02:51.363Z,6.40
2022-11-24T05:05:20.589Z,6.65
2022-11-24T05:07:48.810Z,6.71
2022-11-24T05:10:35.152Z,6.58
2022-11-24T05:13:06.360Z,6.66
2022-11-24T05:15:36.208Z,6.52
2022-11-24T05:18:07.632Z,6.49
2022-11-24T05:20:36.770Z,6.66
2022-11-24T05:23:06.329Z,6.70
2022-11-24T05:25:34.892Z,6.71
2022-11-24T05:28:08.947Z,6.77
2022-11-24T05:30:40.151Z,6.77
2022-11-24T05:33:09.005Z,6.95
2022-11-24T05:35:38.217Z,6.93
2022-11-24T05:38:08.003Z,6.85
2022-11-24T05:40:36.392Z,6.82
2022-11-24T05:43:06.324Z,6.99
2022-11-24T05:45:34.789Z,7.00
2022-11-24T05:48:06.946Z,7.00
2022-11-24T05:50:36.969Z,7.08
2022-11-24T05:53:06.535Z,7.03
2022-11-24T05:55:37.073Z,7.11
2022-11-24T05:58:10.146Z,7.18
2022-11-24T06:00:38.372Z,7.15
2022-11-24T06:03:07.154Z,7.12
2022-11-24T06:05:36.022Z,7.12
2022-11-24T06:08:04.487Z,7.07
2022-11-24T06:10:33.044Z,7.06
2022-11-24T06:13:01.432Z,7.09
2022-11-24T06:15:31.205Z,7.09
2022-11-24T06:17:59.490Z,7.09
2022-11-24T06:20:32.503Z,7.04
2022-11-24T06:23:03.147Z,6.98
2022-11-24T06:25:31.677Z,6.96
2022-11-24T06:28:00.148Z,6.87
2022-11-24T06:30:28.845Z,6.75
2022-11-24T06:32:59.180Z,6.75
2022-11-24T06:35:30.020Z,6.71
2022-11-24T06:37:58.783Z,6.65
2022-11-24T06:40:27.387Z,6.70
2022-11-24T06:42:57.246Z,6.67
2022-11-24T06:45:26.044Z,6.60
2022-11-24T06:47:58.444Z,6.65
2022-11-24T06:50:33.409Z,6.69
2022-11-24T06:53:03.708Z,6.66
2022-11-24T06:55:32.402Z,6.68
2022-11-24T06:58:00.852Z,6.62
2022-11-24T07:00:32.297Z,6.56
2022-11-24T07:03:00.854Z,6.67
2022-11-24T07:05:31.804Z,6.68
2022-11-24T07:08:01.969Z,6.68
2022-11-24T07:10:30.983Z,6.73
2022-11-24T07:12:59.673Z,6.79
2022-11-24T07:15:30.173Z,6.67
2022-11-24T07:17:58.617Z,6.85
2022-11-24T07:20:29.329Z,6.91
2022-11-24T07:23:00.398Z,6.89
2022-11-24T07:25:29.447Z,6.98
2022-11-24T07:27:58.387Z,6.99
2022-11-24T07:30:27.886Z,7.14
2022-11-24T07:33:02.212Z,7.20
2022-11-24T07:35:31.388Z,7.20
2022-11-24T07:38:01.689Z,7.19
2022-11-24T07:40:31.126Z,7.30
2022-11-24T07:43:02.362Z,7.33
2022-11-24T07:45:30.773Z,7.29
2022-11-24T07:47:59.171Z,7.45
2022-11-24T07:50:27.681Z,7.57
2022-11-24T07:52:56.401Z,7.59
2022-11-24T07:55:26.264Z,7.55
2022-11-24T07:57:54.795Z,7.51
2022-11-24T08:00:24.576Z,7.73
2022-11-24T08:02:54.220Z,7.68
2022-11-24T08:05:23.368Z,7.78
2022-11-24T08:07:53.498Z,7.87
2022-11-24T08:10:27.160Z,7.89
2022-11-24T08:12:56.205Z,7.93
2022-11-24T08:15:25.703Z,7.97
2022-11-24T08:17:54.344Z,7.99
2022-11-24T08:20:25.357Z,7.98
2022-11-24T08:23:04.900Z,8.07
2022-11-24T08:25:35.167Z,7.99
2022-11-24T08:28:08.698Z,7.92
2022-11-24T08:30:36.877Z,8.04
2022-11-24T08:33:06.825Z,8.08
2022-11-24T08:35:38.469Z,8.15
2022-11-24T08:38:08.572Z,8.18
2022-11-24T08:40:39.907Z,8.13
2022-11-24T08:43:09.981Z,8.14
2022-11-24T08:45:41.655Z,8.21
2022-11-24T08:48:11.674Z,8.23
2022-11-24T08:50:40.104Z,8.14
2022-11-24T08:53:08.575Z,8.28
2022-11-24T08:55:38.175Z,8.31
2022-11-24T08:58:06.760Z,8.26
2022-11-24T09:00:37.885Z,8.28
2022-11-24T09:03:06.840Z,8.35
2022-11-24T09:05:52.456Z,8.28
2022-11-24T09:08:23.944Z,8.46
2022-11-24T09:10:56.941Z,8.44
2022-11-24T09:13:27.162Z,8.53
2022-11-24T09:15:56.102Z,8.56
2022-11-24T09:18:28.957Z,8.54
2022-11-24T09:21:08.216Z,8.62
2022-11-24T09:23:36.605Z,8.61
2022-11-24T09:26:08.538Z,8.76
2022-11-24T09:28:36.879Z,8.67
2022-11-24T09:31:07.352Z,8.78
2022-11-24T09:33:37.043Z,8.94
2022-11-24T09:36:06.400Z,8.83
2022-11-24T09:38:34.895Z,8.84
2022-11-24T09:41:22.909Z,8.86
2022-11-24T09:44:02.259Z,8.78
2022-11-24T09:46:35.063Z,8.77
2022-11-24T09:49:06.430Z,8.81
2022-11-24T09:51:35.346Z,8.81
2022-11-24T09:54:13.262Z,8.87
2022-11-24T09:56:43.663Z,8.93
2022-11-24T09:59:16.986Z,9.28
2022-11-24T10:01:47.059Z,9.26
2022-11-24T10:04:18.461Z,9.52
2022-11-24T10:06:53.118Z,9.79
2022-11-24T10:09:34.697Z,10.03
2022-11-24T10:12:17.607Z,9.95
2022-11-24T10:15:05.020Z,9.79
2022-11-24T10:17:51.787Z,9.68
2022-11-24T10:20:27.783Z,9.51
2022-11-24T10:23:10.951Z,9.39
2022-11-24T10:25:50.821Z,9.43
2022-11-24T10:28:20.671Z,9.35
2022-11-24T10:30:49.257Z,9.20
2022-11-24T10:33:27.088Z,9.13
2022-11-24T10:36:05.971Z,9.28
2022-11-24T10:38:43.491Z,9.52
2022-11-24T10:41:17.905Z,9.56
2022-11-24T10:43:47.500Z,9.64
2022-11-24T10:46:20.826Z,9.60
2022-11-24T10:48:52.223Z,9.50
2022-11-24T10:51:38.588Z,9.24
2022-11-24T10:54:13.801Z,9.43
2022-11-24T10:56:44.987Z,9.45
2022-11-24T10:59:32.447Z,9.30
2022-11-24T11:02:01.360Z,9.36
2022-11-24T11:04:31.246Z,9.49
2022-11-24T11:07:19.847Z,9.89
2022-11-24T11:09:49.412Z,9.70
2022-11-24T11:15:32.744Z,9.71
2022-11-24T11:18:02.242Z,9.69
2022-11-24T11:20:34.703Z,9.70
2022-11-24T11:23:15.218Z,10.06
2022-11-24T11:25:43.902Z,10.70
2022-11-24T11:28:28.023Z,10.43
2022-11-24T11:31:21.339Z,10.30
2022-11-24T11:34:06.305Z,10.11
2022-11-24T11:36:36.172Z,10.16
2022-11-24T11:39:05.384Z,10.27
2022-11-24T11:41:37.588Z,10.27
2022-11-24T11:44:19.534Z,10.13
2022-11-24T11:46:49.474Z,10.27
2022-11-24T11:49:17.749Z,10.43
2022-11-24T11:51:57.750Z,10.47
2022-11-24T11:54:42.733Z,10.11
2022-11-24T11:57:16.584Z,10.06
2022-11-24T11:59:59.899Z,10.05
2022-11-24T12:03:06.435Z,10.26
2022-11-24T12:05:47.780Z,10.02
2022-11-24T12:08:43.998Z,10.01
2022-11-24T12:11:27.378Z,10.10
2022-11-24T12:14:12.207Z,10.00
2022-11-24T12:16:47.848Z,10.03
2022-11-24T12:19:30.281Z,10.48
2022-11-24T12:22:09.131Z,10.70
2022-11-24T12:24:45.694Z,10.91
2022-11-24T12:27:28.795Z,10.76
2022-11-24T12:30:07.195Z,10.65
2022-11-24T12:32:54.495Z,10.41
2022-11-24T12:35:32.083Z,10.34
2022-11-24T12:38:12.581Z,10.49
2022-11-24T12:41:18.164Z,10.63
2022-11-24T12:43:52.406Z,10.48
2022-11-24T12:46:26.992Z,10.89
2022-11-24T12:49:05.831Z,10.82
2022-11-24T12:51:40.141Z,10.78
2022-11-24T12:54:13.893Z,10.45
2022-11-24T12:56:46.944Z,10.15
2022-11-24T12:59:25.967Z,10.29
2022-11-24T13:02:06.180Z,10.48
2022-11-24T13:04:39.632Z,10.68
2022-11-24T13:07:19.827Z,10.74
2022-11-24T13:10:34.673Z,10.56
2022-11-24T13:13:11.672Z,10.52
2022-11-24T13:19:15.506Z,10.46
2022-11-24T13:22:21.001Z,10.65
2022-11-24T13:25:12.817Z,10.47
2022-11-24T13:27:43.690Z,10.56
2022-11-24T13:30:52.501Z,10.58
2022-11-24T13:33:31.458Z,10.72
2022-11-24T13:36:31.726Z,11.00
2022-11-24T13:39:02.166Z,11.29
2022-11-24T13:42:03.726Z,11.54
2022-11-24T13:44:51.145Z,11.89
2022-11-24T13:47:40.757Z,12.54
2022-11-24T13:50:14.981Z,13.08
2022-11-24T13:52:50.560Z,13.54
2022-11-24T13:55:30.515Z,14.11
2022-11-24T13:58:04.558Z,14.62
2022-11-24T14:00:36.673Z,12.47
2022-11-24T14:03:17.505Z,12.32
2022-11-24T14:05:50.559Z,11.83
2022-11-24T14:08:24.630Z,12.24
2022-11-24T14:10:53.758Z,12.31
2022-11-24T14:13:27.995Z,12.43
2022-11-24T14:16:18.016Z,12.00
2022-11-24T14:18:49.949Z,11.39
2022-11-24T14:21:29.316Z,11.34
2022-11-24T14:24:01.394Z,11.53
2022-11-24T14:26:34.440Z,12.28
2022-11-24T14:29:07.769Z,12.76
2022-11-24T14:31:37.470Z,13.31
2022-11-24T14:34:18.131Z,13.02
2022-11-24T14:36:46.602Z,13.18
2022-11-24T14:39:17.167Z,13.22
2022-11-24T14:41:54.574Z,13.30
2022-11-24T14:44:26.717Z,13.21
2022-11-24T14:47:05.749Z,13.08
2022-11-24T14:49:35.586Z,13.18
2022-11-24T14:52:06.342Z,13.11
2022-11-24T14:54:38.925Z,12.34
2022-11-24T14:57:08.456Z,12.04
2022-11-24T14:59:38.495Z,11.35
2022-11-24T15:02:52.243Z,11.46
2022-11-24T15:05:21.973Z,11.55
2022-11-24T15:07:52.369Z,11.01
2022-11-24T15:10:35.014Z,10.77
2022-11-24T15:13:05.957Z,10.82
2022-11-24T15:15:38.045Z,10.66
2022-11-24T15:18:08.232Z,10.72
2022-11-24T15:20:41.715Z,10.29
2022-11-24T15:23:22.821Z,10.03
2022-11-24T15:25:58.722Z,9.99
2022-11-24T15:28:27.051Z,9.78
2022-11-24T15:30:56.080Z,9.79
2022-11-24T15:33:25.806Z,9.77
2022-11-24T15:35:54.881Z,9.93
2022-11-24T15:38:24.156Z,9.77
2022-11-24T15:40:53.995Z,9.45
2022-11-24T15:43:30.319Z,9.14
2022-11-24T15:45:59.381Z,8.96
2022-11-24T15:48:30.204Z,8.95
2022-11-24T15:50:59.735Z,8.83
2022-11-24T15:53:33.980Z,8.73
2022-11-24T15:56:04.007Z,8.55
2022-11-24T15:58:32.528Z,8.70
2022-11-24T16:01:01.248Z,8.68
2022-11-24T16:03:48.175Z,8.66
2022-11-24T16:06:24.536Z,8.72
2022-11-24T16:08:53.431Z,8.82
2022-11-24T16:11:22.153Z,8.76
2022-11-24T16:13:53.488Z,8.82
2022-11-24T16:16:23.634Z,8.71
2022-11-24T16:18:57.293Z,8.90
2022-11-24T16:21:27.035Z,8.95
2022-11-24T16:23:55.747Z,8.91
2022-11-24T16:26:24.396Z,8.82
2022-11-24T16:28:52.864Z,8.84
2022-11-24T16:31:21.997Z,9.02
2022-11-24T16:33:50.474Z,8.91
2022-11-24T16:36:21.209Z,8.94
2022-11-24T16:38:49.661Z,8.80
2022-11-24T16:41:18.033Z,8.82
2022-11-24T16:43:47.441Z,8.72
2022-11-24T16:46:22.219Z,8.76
2022-11-24T16:48:55.175Z,8.77
2022-11-24T16:51:29.982Z,8.79
2022-11-24T16:54:03.180Z,8.89
2022-11-24T16:56:34.286Z,8.75
2022-11-24T16:59:02.851Z,8.59
2022-11-24T17:01:31.099Z,8.72
2022-11-24T17:03:59.594Z,8.54
2022-11-24T17:06:29.402Z,8.47
2022-11-24T17:08:57.492Z,8.43
2022-11-24T17:11:28.263Z,8.44
2022-11-24T17:13:57.788Z,8.28
2022-11-24T17:16:27.375Z,8.35
2022-11-24T17:18:56.374Z,8.27
2022-11-24T17:21:26.311Z,8.32
2022-11-24T17:23:57.775Z,8.38
2022-11-24T17:26:26.720Z,8.41
2022-11-24T17:28:56.093Z,8.38
2022-11-24T17:31:26.409Z,8.27
2022-11-24T17:33:56.541Z,8.18
2022-11-24T17:36:25.571Z,8.20
2022-11-24T17:38:55.547Z,8.23
2022-11-24T17:41:24.802Z,8.23
2022-11-24T17:43:56.809Z,8.17
2022-11-24T17:46:26.834Z,8.11
2022-11-24T17:48:55.723Z,8.00
2022-11-24T17:51:25.253Z,7.97
2022-11-24T17:53:57.543Z,7.85
2022-11-24T17:56:27.437Z,7.81
2022-11-24T17:58:56.567Z,7.88
2022-11-24T18:01:26.198Z,7.94
2022-11-24T18:03:55.180Z,7.82
2022-11-24T18:06:25.667Z,7.92
2022-11-24T18:08:57.859Z,7.86
2022-11-24T18:11:31.454Z,7.83
2022-11-24T18:14:03.503Z,7.67
2022-11-24T18:16:33.406Z,7.67
2022-11-24T18:19:11.336Z,7.49
2022-11-24T18:21:40.805Z,7.56
2022-11-24T18:24:11.930Z,7.47
2022-11-24T18:26:42.678Z,7.58
2022-11-24T18:29:11.565Z,7.59
2022-11-24T18:31:40.661Z,7.39
2022-11-24T18:34:09.277Z,7.56
2022-11-24T18:36:38.392Z,7.46
2022-11-24T18:39:08.603Z,7.41
2022-11-24T18:41:40.675Z,7.51
2022-11-24T18:44:09.088Z,7.25
2022-11-24T18:46:38.145Z,7.25
2022-11-24T18:49:07.140Z,6.94
2022-11-24T18:51:36.190Z,6.95
2022-11-24T18:54:05.751Z,6.78
2022-11-24T18:56:34.230Z,6.83
2022-11-24T18:59:05.253Z,6.80
2022-11-24T19:01:34.761Z,6.84
2022-11-24T19:04:04.168Z,6.79
2022-11-24T19:06:34.966Z,6.69
2022-11-24T19:09:05.980Z,6.74
2022-11-24T19:11:37.269Z,6.60
2022-11-24T19:14:09.371Z,6.62
2022-11-24T19:16:38.461Z,6.61
2022-11-24T19:19:07.695Z,6.36
2022-11-24T19:21:38.073Z,6.38
2022-11-24T19:24:07.567Z,6.45
2022-11-24T19:26:37.419Z,6.49
2022-11-24T19:29:08.807Z,6.29
2022-11-24T19:31:38.547Z,6.32
2022-11-24T19:34:08.247Z,6.33
2022-11-24T19:36:36.782Z,6.32
2022-11-24T19:39:05.738Z,6.48
2022-11-24T19:41:34.954Z,6.46
2022-11-24T19:44:03.390Z,6.51
2022-11-24T19:46:33.675Z,6.58
2022-11-24T19:49:04.079Z,6.45
2022-11-24T19:51:33.742Z,6.45
2022-11-24T19:54:02.590Z,6.39
2022-11-24T19:56:35.153Z,6.43
2022-11-24T19:59:04.997Z,6.50
2022-11-24T20:01:38.329Z,6.25
2022-11-24T20:04:09.219Z,6.19
2022-11-24T20:06:39.758Z,5.87
2022-11-24T20:09:10.913Z,6.01
2022-11-24T20:11:39.871Z,5.98
2022-11-24T20:14:16.500Z,5.95
2022-11-24T20:16:47.967Z,5.98
2022-11-24T20:19:18.984Z,5.93
2022-11-24T20:21:49.506Z,5.93
2022-11-24T20:24:22.295Z,5.83
2022-11-24T20:26:52.915Z,5.89
2022-11-24T20:29:22.865Z,5.85
2022-11-24T20:31:55.304Z,5.84
2022-11-24T20:34:24.873Z,5.88
2022-11-24T20:36:54.635Z,5.84
2022-11-24T20:39:26.474Z,5.87
2022-11-24T20:41:56.127Z,5.83
2022-11-24T20:44:26.896Z,5.83
2022-11-24T20:47:00.530Z,5.96
2022-11-24T20:49:30.028Z,5.73
2022-11-24T20:51:58.357Z,5.78
2022-11-24T20:54:26.882Z,5.74
2022-11-24T20:56:55.882Z,5.68
2022-11-24T20:59:26.011Z,5.75
2022-11-24T21:01:57.333Z,5.87
2022-11-24T21:04:27.730Z,6.01
2022-11-24T21:06:56.192Z,6.01
2022-11-24T21:09:25.510Z,6.03
2022-11-24T21:11:54.862Z,6.02
2022-11-24T21:14:24.583Z,6.03
2022-11-24T21:16:52.893Z,5.98
2022-11-24T21:19:22.721Z,6.06
2022-11-24T21:21:51.118Z,6.10
2022-11-24T21:24:21.723Z,6.11
2022-11-24T21:26:52.927Z,6.21
2022-11-24T21:29:23.883Z,6.05
2022-11-24T21:31:52.725Z,6.08
2022-11-24T21:34:25.403Z,6.15
2022-11-24T21:36:53.535Z,6.10
2022-11-24T21:39:22.691Z,6.19
2022-11-24T21:41:50.948Z,6.05
2022-11-24T21:44:19.261Z,5.95
2022-11-24T21:46:52.717Z,5.99
2022-11-24T21:49:26.190Z,6.00
2022-11-24T21:51:56.052Z,5.89
2022-11-24T21:54:25.045Z,5.97
2022-11-24T21:56:55.676Z,5.86
2022-11-24T21:59:24.603Z,5.81
2022-11-24T22:01:53.336Z,5.88
2022-11-24T22:04:21.865Z,5.79
2022-11-24T22:06:54.414Z,5.77
2022-11-24T22:09:24.110Z,5.78
2022-11-24T22:11:53.344Z,5.78
2022-11-24T22:14:22.409Z,5.77
2022-11-24T22:16:50.600Z,5.86
2022-11-24T22:19:20.421Z,5.94
2022-11-24T22:21:49.087Z,5.85
2022-11-24T22:24:25.788Z,5.77
2022-11-24T22:26:55.988Z,5.79
2022-11-24T22:29:24.717Z,5.81
2022-11-24T22:31:53.197Z,5.85
2022-11-24T22:34:22.064Z,5.74
2022-11-24T22:36:55.217Z,5.73
2022-11-24T22:39:25.146Z,5.78
2022-11-24T22:41:55.376Z,5.71
2022-11-24T22:44:23.553Z,5.78
2022-11-24T22:46:51.985Z,5.72
2022-11-24T22:49:20.227Z,5.77
2022-11-24T22:51:48.681Z,5.57
2022-11-24T22:54:16.823Z,5.73
2022-11-24T22:56:46.622Z,5.60
2022-11-24T22:59:14.825Z,5.65
2022-11-24T23:01:43.218Z,5.52
2022-11-24T23:04:11.462Z,5.66
2022-11-24T23:06:39.903Z,5.59
2022-11-24T23:09:08.418Z,5.58
2022-11-24T23:11:41.515Z,5.62
2022-11-24T23:14:15.375Z,5.67
2022-11-24T23:16:44.095Z,5.42
2022-11-24T23:19:12.405Z,5.41
2022-11-24T23:21:41.119Z,5.54
2022-11-24T23:24:10.235Z,5.47
2022-11-24T23:26:41.545Z,5.46
2022-11-24T23:29:12.015Z,5.29
2022-11-24T23:31:41.058Z,5.37
2022-11-24T23:34:11.270Z,5.36
2022-11-24T23:36:39.632Z,5.45
2022-11-24T23:39:09.629Z,5.38
2022-11-24T23:41:37.747Z,5.39
2022-11-24T23:44:09.954Z,5.30
2022-11-24T23:46:40.225Z,5.22
2022-11-24T23:49:08.311Z,5.25
2022-11-24T23:51:36.831Z,5.23
2022-11-24T23:54:09.119Z,5.21
2022-11-24T23:56:37.203Z,5.18
2022-11-24T23:59:11.339Z,5.15
